createdAt,value
2023-05-24T00:01:26.977Z,25.90
2023-05-24T00:06:28.619Z,22.90
2023-05-24T00:11:30.492Z,25.00
2023-05-24T00:16:32.541Z,25.00
2023-05-24T00:21:36.428Z,25.50
2023-05-24T00:26:38.068Z,27.30
2023-05-24T00:31:39.779Z,25.40
2023-05-24T00:36:42.002Z,24.60
2023-05-24T00:41:43.611Z,27.40
2023-05-24T00:46:45.702Z,24.80
2023-05-24T00:51:52.603Z,26.60
2023-05-24T00:56:56.518Z,22.70
2023-05-24T01:02:00.568Z,22.40
2023-05-24T01:07:11.656Z,24.40
2023-05-24T01:12:35.640Z,26.20
2023-05-24T01:17:53.592Z,22.60
2023-05-24T01:23:58.357Z,21.30
2023-05-24T01:30:19.425Z,21.70
2023-05-24T01:35:42.060Z,26.60
2023-05-24T01:40:45.088Z,22.40
2023-05-24T01:46:27.453Z,24.40
2023-05-24T01:52:51.635Z,21.70
2023-05-24T01:58:13.527Z,26.00
2023-05-24T02:03:15.910Z,23.30
2023-05-24T02:08:17.497Z,21.20
2023-05-24T02:13:20.403Z,24.50
2023-05-24T02:19:21.872Z,25.10
2023-05-24T02:25:44.286Z,22.10
2023-05-24T02:32:05.491Z,23.30
2023-05-24T02:38:26.643Z,25.90
2023-05-24T02:44:47.763Z,27.80
2023-05-24T02:51:08.969Z,27.90
2023-05-24T02:57:30.333Z,25.00
2023-05-24T03:03:04.172Z,29.20
2023-05-24T03:08:07.351Z,25.10
2023-05-24T03:13:18.025Z,26.40
2023-05-24T03:18:19.492Z,27.20
2023-05-24T03:24:20.790Z,27.80
2023-05-24T03:30:43.674Z,23.40
2023-05-24T03:37:05.222Z,22.10
2023-05-24T03:43:26.377Z,20.00
2023-05-24T03:49:52.070Z,20.70
2023-05-24T03:56:13.132Z,19.50
2023-05-24T04:02:22.901Z,19.80
2023-05-24T04:08:44.020Z,17.50
2023-05-24T04:15:05.089Z,11.00
2023-05-24T04:20:27.761Z,11.30
2023-05-24T04:25:29.657Z,8.00
2023-05-24T04:31:30.807Z,4.90
2023-05-24T04:37:52.110Z,5.70
2023-05-24T04:44:14.266Z,5.20
2023-05-24T04:50:35.255Z,7.80
2023-05-24T04:56:56.337Z,6.30
2023-05-24T05:02:17.555Z,7.90
2023-05-24T05:07:19.248Z,8.90
2023-05-24T05:12:20.610Z,11.10
2023-05-24T05:17:22.705Z,7.80
2023-05-24T05:22:24.221Z,16.60
2023-05-24T05:27:26.251Z,10.40
2023-05-24T05:33:27.455Z,10.60
2023-05-24T05:38:48.877Z,13.00
2023-05-24T05:43:50.422Z,13.10
2023-05-24T05:49:51.588Z,12.70
2023-05-24T05:56:12.782Z,11.40
2023-05-24T06:02:34.101Z,13.20
2023-05-24T06:09:05.367Z,9.70
2023-05-24T06:15:26.544Z,12.00
2023-05-24T06:21:47.844Z,15.90
2023-05-24T06:28:09.379Z,12.30
2023-05-24T06:34:30.550Z,21.20
2023-05-24T06:39:52.067Z,14.30
2023-05-24T06:44:53.853Z,12.80
2023-05-24T06:49:55.356Z,7.80
2023-05-24T06:54:57.077Z,9.50
2023-05-24T07:00:38.183Z,10.00
2023-05-24T07:06:42.112Z,11.50
2023-05-24T07:13:03.433Z,11.80
2023-05-24T07:18:25.229Z,9.40
2023-05-24T07:23:27.205Z,11.70
2023-05-24T07:28:29.137Z,11.50
2023-05-24T07:33:30.616Z,15.40
2023-05-24T07:38:32.465Z,11.80
2023-05-24T07:44:36.421Z,15.00
2023-05-24T07:50:57.799Z,14.30
2023-05-24T07:57:18.809Z,12.70
2023-05-24T08:03:40.181Z,14.30
2023-05-24T08:10:01.392Z,18.30
2023-05-24T08:16:22.726Z,14.00
2023-05-24T08:21:44.060Z,11.70
2023-05-24T08:26:45.717Z,8.80
2023-05-24T08:31:49.693Z,12.30
2023-05-24T08:36:51.680Z,9.70
2023-05-24T08:42:08.078Z,10.10
2023-05-24T08:47:13.728Z,8.70
2023-05-24T08:52:15.818Z,9.50
2023-05-24T08:57:18.620Z,8.90
2023-05-24T09:02:20.031Z,7.90
2023-05-24T09:07:25.311Z,9.00
2023-05-24T09:12:37.311Z,7.40
2023-05-24T09:17:42.522Z,7.90
2023-05-24T09:22:47.917Z,8.00
2023-05-24T09:27:53.036Z,8.60
2023-05-24T09:32:59.503Z,8.80
2023-05-24T09:38:17.832Z,9.10
2023-05-24T09:43:19.258Z,7.90
2023-05-24T09:48:21.636Z,9.20
2023-05-24T09:54:22.783Z,11.70
2023-05-24T10:00:46.758Z,9.20
2023-05-24T10:07:10.474Z,9.10
2023-05-24T10:13:32.976Z,8.90
2023-05-24T10:18:54.410Z,16.40
2023-05-24T10:23:59.290Z,13.70
2023-05-24T10:29:06.655Z,17.20
2023-05-24T10:34:09.890Z,12.90
2023-05-24T10:39:12.086Z,11.90
2023-05-24T10:44:18.952Z,12.70
2023-05-24T10:49:22.142Z,12.50
2023-05-24T10:54:26.681Z,11.20
2023-05-24T10:59:40.650Z,11.20
2023-05-24T11:05:46.558Z,9.70
2023-05-24T11:12:08.090Z,11.20
2023-05-24T11:18:33.526Z,9.10
2023-05-24T11:24:57.242Z,13.10
2023-05-24T11:31:20.941Z,14.50
2023-05-24T11:37:46.377Z,11.10
2023-05-24T11:44:08.100Z,9.30
2023-05-24T11:50:33.118Z,7.00
2023-05-24T11:56:43.396Z,11.10
2023-05-24T12:03:04.626Z,7.40
2023-05-24T12:09:25.803Z,9.80
2023-05-24T12:15:47.280Z,10.20
2023-05-24T12:22:11.170Z,8.30
2023-05-24T12:28:32.259Z,8.90
2023-05-24T12:34:55.854Z,16.10
2023-05-24T12:41:16.905Z,8.80
2023-05-24T12:46:38.472Z,13.30
2023-05-24T13:06:54.218Z,12.40
2023-05-24T13:13:37.685Z,11.90
2023-05-24T13:20:09.274Z,10.80
2023-05-24T13:27:09.203Z,8.00
2023-05-24T13:33:56.958Z,13.00
2023-05-24T13:40:59.348Z,8.50
2023-05-24T13:47:54.621Z,16.00
2023-05-24T13:54:39.586Z,15.90
2023-05-24T14:01:21.870Z,13.70
2023-05-24T14:08:07.070Z,16.20
2023-05-24T14:20:16.775Z,14.20
2023-05-24T14:25:51.462Z,14.40
2023-05-24T14:32:08.062Z,17.30
2023-05-24T14:38:41.797Z,15.20
2023-05-24T14:44:59.476Z,14.70
2023-05-24T14:52:04.392Z,15.20
2023-05-24T14:58:55.125Z,10.30
2023-05-24T15:05:40.199Z,15.80
2023-05-24T15:12:43.130Z,14.80
2023-05-24T15:19:46.108Z,11.50
2023-05-24T15:26:26.413Z,14.40
2023-05-24T15:32:35.733Z,13.40
2023-05-24T15:38:45.389Z,14.80
2023-05-24T15:44:52.836Z,15.20
2023-05-24T15:51:58.200Z,15.40
2023-05-24T15:58:28.343Z,12.60
2023-05-24T16:05:09.731Z,12.50
2023-05-24T16:11:47.525Z,13.90
2023-05-24T16:18:42.579Z,15.90
2023-05-24T16:25:04.417Z,12.30
2023-05-24T16:31:41.347Z,12.50
2023-05-24T16:37:32.003Z,11.60
2023-05-24T16:44:26.185Z,11.50
2023-05-24T16:50:38.664Z,13.20
2023-05-24T16:56:24.438Z,12.10
2023-05-24T17:09:23.359Z,12.00
2023-05-24T17:15:51.858Z,13.50
2023-05-24T17:22:46.227Z,11.80
2023-05-24T17:29:29.256Z,12.00
2023-05-24T17:36:32.106Z,13.30
2023-05-24T17:43:34.941Z,18.40
2023-05-24T17:49:58.185Z,19.10
2023-05-24T17:56:23.957Z,14.20
2023-05-24T18:02:30.532Z,15.60
2023-05-24T18:08:42.465Z,8.50
2023-05-24T18:15:38.992Z,10.40
2023-05-24T18:22:40.700Z,15.10
2023-05-24T18:29:42.519Z,16.30
2023-05-24T18:36:13.956Z,16.50
2023-05-24T18:42:12.035Z,16.90
2023-05-24T18:48:17.886Z,16.40
2023-05-24T18:53:39.464Z,16.50
2023-05-24T18:58:48.962Z,14.80
2023-05-24T19:04:06.871Z,23.40
2023-05-24T19:09:53.925Z,20.20
2023-05-24T19:16:15.846Z,17.90
2023-05-24T19:23:15.313Z,18.60
2023-05-24T19:29:47.861Z,23.30
2023-05-24T19:36:14.346Z,22.30
2023-05-24T19:42:59.141Z,20.70
2023-05-24T19:49:23.439Z,18.50
2023-05-24T19:55:05.684Z,18.90
2023-05-24T20:01:20.654Z,25.00
2023-05-24T20:08:05.109Z,17.70
2023-05-24T20:14:39.474Z,17.50
2023-05-24T20:21:52.332Z,18.90
2023-05-24T20:28:55.294Z,21.90
2023-05-24T20:35:57.781Z,25.20
2023-05-24T20:43:00.178Z,21.20
2023-05-24T20:49:52.374Z,25.00
2023-05-24T20:56:14.472Z,20.20
2023-05-24T21:02:06.452Z,19.50
2023-05-24T21:08:49.205Z,18.70
2023-05-24T21:15:39.613Z,19.00
2023-05-24T21:22:43.626Z,21.00
2023-05-24T21:29:46.671Z,22.40
2023-05-24T21:36:29.023Z,19.20
2023-05-24T21:42:35.461Z,18.70
2023-05-24T21:48:43.913Z,19.70
2023-05-24T21:55:22.198Z,18.70
2023-05-24T22:02:01.350Z,18.70
2023-05-24T22:08:44.865Z,22.90
2023-05-24T22:15:35.497Z,23.30
2023-05-24T22:22:21.145Z,19.90
2023-05-24T22:29:26.022Z,19.60
2023-05-24T22:34:50.438Z,17.10
2023-05-24T22:41:11.769Z,25.70
2023-05-24T22:47:43.131Z,19.90
2023-05-24T22:54:12.436Z,20.90
2023-05-24T23:00:39.632Z,16.00
2023-05-24T23:07:05.577Z,18.20
2023-05-24T23:13:57.168Z,18.60
2023-05-24T23:20:45.706Z,19.00
2023-05-24T23:27:14.489Z,19.80
2023-05-24T23:33:32.401Z,16.90
2023-05-24T23:40:26.673Z,20.40
2023-05-24T23:46:56.920Z,22.40
2023-05-24T23:53:59.967Z,18.40
